Terminal Aerodrome Forecast
Issued by NWS

Home | Current Version | Previous Version | Text Only | Print | Product List | Glossary On
Versions: 1 2 3 4 5 6 7 8 9 10 11 12 13 14 15 16 17
000
FTUS43 KAPX 301120
TAFAPN
TAF
KAPN 301120Z 3012/3112 09010KT P6SM BKN040 OVC120
     FM301400 11011G19KT P6SM BKN040 OVC070
     FM302000 09012G20KT 6SM -RASN OVC025
     FM302300 08014G22KT 1 1/2SM -SN SCT008 OVC020
     FM310400 08014G24KT 3SM -SN OVC015
     FM310600 08014G23KT 4SM -RASN OVC015=

USA.gov is the U.S. government's official web portal to all federal, state and local government web resources and services.